createdAt,value
2018-04-01T00:00:21.726Z,10.10
2018-04-01T00:05:22.943Z,10.00
2018-04-01T00:10:24.151Z,10.00
2018-04-01T00:15:25.426Z,9.90
2018-04-01T00:20:26.485Z,9.90
2018-04-01T00:25:27.612Z,9.90
2018-04-01T00:30:28.760Z,9.90
2018-04-01T00:35:29.927Z,9.80
2018-04-01T00:40:31.041Z,9.80
2018-04-01T00:45:32.191Z,9.70
2018-04-01T00:50:34.160Z,9.60
2018-04-01T00:55:35.302Z,9.60
2018-04-01T01:00:36.493Z,9.60
2018-04-01T01:05:38.471Z,9.30
2018-04-01T01:10:40.350Z,9.20
2018-04-01T01:15:42.225Z,9.10
2018-04-01T01:20:44.084Z,9.00
2018-04-01T01:25:45.246Z,8.90
2018-04-01T01:30:46.408Z,8.80
2018-04-01T01:35:47.588Z,8.60
2018-04-01T01:40:48.727Z,8.60
2018-04-01T01:45:49.848Z,8.40
2018-04-01T01:50:51.008Z,8.30
2018-04-01T01:55:52.130Z,8.40
2018-04-01T02:00:53.280Z,8.40
2018-04-01T02:05:54.503Z,8.50
2018-04-01T02:10:55.647Z,8.40
2018-04-01T02:15:57.806Z,8.20
2018-04-01T02:20:59.774Z,8.10
2018-04-01T02:26:00.918Z,8.00
2018-04-01T02:31:02.061Z,7.90
2018-04-01T02:36:03.909Z,7.90
2018-04-01T02:41:05.049Z,7.80
2018-04-01T02:46:06.196Z,7.90
2018-04-01T02:51:07.484Z,7.90
2018-04-01T02:56:08.690Z,7.80
2018-04-01T03:01:09.827Z,7.80
2018-04-01T03:06:11.691Z,7.80
2018-04-01T03:11:12.836Z,7.70
2018-04-01T03:16:14.013Z,7.70
2018-04-01T03:21:15.149Z,7.60
2018-04-01T03:26:16.306Z,7.50
2018-04-01T03:31:17.452Z,7.40
2018-04-01T03:36:18.690Z,7.30
2018-04-01T03:41:19.923Z,7.40
2018-04-01T03:46:21.805Z,7.40
2018-04-01T03:51:22.948Z,7.40
2018-04-01T03:56:24.206Z,7.40
2018-04-01T04:01:26.104Z,7.20
2018-04-01T04:06:28.056Z,7.10
2018-04-01T04:11:29.260Z,7.10
2018-04-01T04:16:30.407Z,7.10
2018-04-01T04:21:31.533Z,7.20
2018-04-01T04:26:32.649Z,7.30
2018-04-01T04:31:33.791Z,7.40
2018-04-01T04:36:34.913Z,7.30
2018-04-01T04:41:36.052Z,7.20
2018-04-01T04:46:37.169Z,7.00
2018-04-01T04:51:38.308Z,7.00
2018-04-01T04:56:40.179Z,6.80
2018-04-01T05:01:42.037Z,6.70
2018-04-01T05:06:43.190Z,6.70
2018-04-01T05:11:44.313Z,6.60
2018-04-01T05:16:45.444Z,6.60
2018-04-01T05:21:46.561Z,6.60
2018-04-01T05:26:47.869Z,6.70
2018-04-01T05:31:49.019Z,6.70
2018-04-01T05:36:50.885Z,8.00
2018-04-01T05:41:52.817Z,8.50
2018-04-01T05:46:53.943Z,8.50
2018-04-01T05:51:55.053Z,9.00
2018-04-01T05:56:56.229Z,9.50
2018-04-01T06:01:58.107Z,10.60
2018-04-01T06:06:59.998Z,10.00
2018-04-01T06:12:01.133Z,9.90
2018-04-01T06:17:02.301Z,9.10
2018-04-01T06:22:03.415Z,8.60
2018-04-01T06:27:04.549Z,8.30
2018-04-01T06:32:05.685Z,8.10
2018-04-01T06:37:07.581Z,8.00
2018-04-01T06:42:08.729Z,8.00
2018-04-01T06:47:09.885Z,8.00
2018-04-01T06:52:11.791Z,7.90
2018-04-01T06:57:12.980Z,7.80
2018-04-01T07:02:14.300Z,7.90
2018-04-01T07:07:15.453Z,8.10
2018-04-01T07:12:16.564Z,8.20
2018-04-01T07:17:17.708Z,8.30
2018-04-01T07:22:18.880Z,8.30
2018-04-01T07:27:20.044Z,8.20
2018-04-01T07:32:21.173Z,8.30
2018-04-01T07:37:22.314Z,8.40
2018-04-01T07:42:23.466Z,8.50
2018-04-01T07:47:24.576Z,8.40
2018-04-01T07:52:25.754Z,8.20
2018-04-01T07:57:27.651Z,8.00
2018-04-01T08:02:28.867Z,7.90
2018-04-01T08:07:30.014Z,7.90
2018-04-01T08:12:31.326Z,7.90
2018-04-01T08:17:33.260Z,8.20
2018-04-01T08:22:34.404Z,8.20
2018-04-01T08:27:35.530Z,8.70
2018-04-01T08:32:36.655Z,9.30
2018-04-01T08:37:37.809Z,9.60
2018-04-01T08:42:38.982Z,9.90
2018-04-01T08:47:40.886Z,10.00
2018-04-01T08:52:42.789Z,9.60
2018-04-01T08:57:43.986Z,9.50
2018-04-01T09:02:45.161Z,9.30
2018-04-01T09:07:47.081Z,9.90
2018-04-01T09:12:48.262Z,9.90
2018-04-01T09:17:49.429Z,10.30
2018-04-01T09:22:50.611Z,9.90
2018-04-01T09:27:52.483Z,12.40
2018-04-01T09:32:53.638Z,12.30
2018-04-01T09:37:54.825Z,13.40
2018-04-01T09:42:55.949Z,13.70
2018-04-01T09:47:57.073Z,13.30
2018-04-01T09:52:58.368Z,12.40
2018-04-01T09:57:59.504Z,13.10
2018-04-01T10:03:01.098Z,13.30
2018-04-01T10:08:02.714Z,12.90
2018-04-01T10:13:04.306Z,12.80
2018-04-01T10:18:05.891Z,12.40
2018-04-01T10:23:07.432Z,12.20
2018-04-01T10:28:09.017Z,9.90
2018-04-01T10:33:10.742Z,8.90
2018-04-01T10:38:12.306Z,8.80
2018-04-01T10:43:13.927Z,9.40
2018-04-01T10:48:15.509Z,9.60
2018-04-01T10:53:17.105Z,9.80
2018-04-01T10:58:19.018Z,10.10
2018-04-01T11:03:20.231Z,10.10
2018-04-01T11:08:22.177Z,9.70
2018-04-01T11:13:23.354Z,9.60
2018-04-01T11:18:24.575Z,10.20
2018-04-01T11:23:25.751Z,10.90
2018-04-01T11:28:26.972Z,11.40
2018-04-01T11:33:28.153Z,11.10
2018-04-01T11:38:29.295Z,10.50
2018-04-01T11:43:30.441Z,10.20
2018-04-01T11:48:32.334Z,10.10
2018-04-01T11:53:33.516Z,10.00
2018-04-01T11:58:34.746Z,10.30
2018-04-01T12:03:35.881Z,10.70
2018-04-01T12:08:37.053Z,11.40
2018-04-01T12:13:38.238Z,12.00
2018-04-01T12:18:39.388Z,12.10
2018-04-01T12:23:40.530Z,12.00
2018-04-01T12:28:42.424Z,12.00
2018-04-01T12:33:43.573Z,11.90
2018-04-01T12:38:44.842Z,11.10
2018-04-01T12:43:46.201Z,10.80
2018-04-01T12:48:47.363Z,11.00
2018-04-01T12:53:48.501Z,11.30
2018-04-01T12:58:50.445Z,11.40
2018-04-01T13:03:52.369Z,11.90
2018-04-01T13:08:54.246Z,12.60
2018-04-01T13:13:55.379Z,12.60
2018-04-01T13:18:56.529Z,12.70
2018-04-01T13:23:57.650Z,12.50
2018-04-01T13:28:58.742Z,12.80
2018-04-01T13:33:59.858Z,13.30
2018-04-01T13:39:00.962Z,12.70
2018-04-01T13:44:02.052Z,12.10
2018-04-01T13:49:03.158Z,11.60
2018-04-01T13:54:04.281Z,11.40
2018-04-01T13:59:05.458Z,11.50
2018-04-01T14:04:06.559Z,12.20
2018-04-01T14:09:07.683Z,13.20
2018-04-01T14:14:08.828Z,13.00
2018-04-01T14:19:10.004Z,12.00
2018-04-01T14:24:11.235Z,12.20
2018-04-01T14:29:12.404Z,12.00
2018-04-01T14:34:13.564Z,11.90
2018-04-01T14:39:14.752Z,11.90
2018-04-01T14:44:15.918Z,12.20
2018-04-01T14:49:17.080Z,12.70
2018-04-01T14:54:18.312Z,12.70
2018-04-01T14:59:19.467Z,12.70
2018-04-01T15:04:20.630Z,12.60
2018-04-01T15:09:21.770Z,12.70
2018-04-01T15:14:23.810Z,12.60
2018-04-01T15:19:24.877Z,12.50
2018-04-01T15:24:26.775Z,11.50
2018-04-01T15:29:27.919Z,11.40
2018-04-01T15:34:29.821Z,11.00
2018-04-01T15:39:31.006Z,10.90
2018-04-01T15:44:32.250Z,10.60
2018-04-01T15:49:33.457Z,10.30
2018-04-01T15:54:34.608Z,10.10
2018-04-01T15:59:35.741Z,10.00
2018-04-01T16:04:36.878Z,10.00
2018-04-01T16:09:38.036Z,9.80
2018-04-01T16:14:39.225Z,9.70
2018-04-01T16:19:40.391Z,9.70
2018-04-01T16:24:41.573Z,9.60
2018-04-01T16:29:42.775Z,9.60
2018-04-01T16:34:43.892Z,9.70
2018-04-01T16:39:44.988Z,9.80
2018-04-01T16:44:46.115Z,10.00
2018-04-01T16:49:47.935Z,10.40
2018-04-01T16:54:49.038Z,10.30
2018-04-01T16:59:50.097Z,10.50
2018-04-01T17:04:51.261Z,10.50
2018-04-01T17:09:53.131Z,10.40
2018-04-01T17:14:54.283Z,10.40
2018-04-01T17:19:55.430Z,10.40
2018-04-01T17:24:56.553Z,10.30
2018-04-01T17:29:57.660Z,10.30
2018-04-01T17:34:58.750Z,10.20
2018-04-01T17:39:59.878Z,10.20
2018-04-01T17:45:00.995Z,10.10
2018-04-01T17:50:02.164Z,10.10
2018-04-01T17:55:03.323Z,10.10
2018-04-01T18:00:04.484Z,10.00
2018-04-01T18:05:05.641Z,10.00
2018-04-01T18:10:06.781Z,10.00
2018-04-01T18:15:07.965Z,9.80
2018-04-01T18:20:09.126Z,9.70
2018-04-01T18:25:10.259Z,9.60
2018-04-01T18:30:11.389Z,9.20
2018-04-01T18:35:13.301Z,8.70
2018-04-01T18:40:14.534Z,8.60
2018-04-01T18:45:15.629Z,8.60
2018-04-01T18:50:16.964Z,8.30
2018-04-01T18:55:18.132Z,7.90
2018-04-01T19:00:19.392Z,7.70
2018-04-01T19:05:20.609Z,7.60
2018-04-01T19:10:22.022Z,7.80
2018-04-01T19:15:23.144Z,7.90
2018-04-01T19:20:25.856Z,8.00
2018-04-01T19:25:27.416Z,8.00
2018-04-01T19:30:29.900Z,8.00
2018-04-01T19:35:32.526Z,8.00
2018-04-01T19:40:34.330Z,8.00
2018-04-01T19:45:36.294Z,7.90
2018-04-01T19:50:38.162Z,8.00
2018-04-01T19:55:40.031Z,8.10
2018-04-01T20:00:41.722Z,8.00
2018-04-01T20:05:44.487Z,8.10
2018-04-01T20:10:46.411Z,8.00
2018-04-01T20:15:47.998Z,8.00
2018-04-01T20:20:49.605Z,8.10
2018-04-01T20:25:51.169Z,8.00
2018-04-01T20:30:52.741Z,8.00
2018-04-01T20:35:54.523Z,8.00
2018-04-01T20:40:56.121Z,8.00
2018-04-01T20:45:57.691Z,8.00
2018-04-01T20:50:59.425Z,8.00
2018-04-01T20:56:01.080Z,7.90
2018-04-01T21:01:03.482Z,7.90
2018-04-01T21:06:05.093Z,7.90
2018-04-01T21:11:06.873Z,7.80
2018-04-01T21:16:08.497Z,7.80
2018-04-01T21:21:09.999Z,7.60
2018-04-01T21:26:11.628Z,7.60
2018-04-01T21:31:13.241Z,7.70
2018-04-01T21:36:14.794Z,7.70
2018-04-01T21:41:16.382Z,7.70
2018-04-01T21:46:18.166Z,7.70
2018-04-01T21:51:19.713Z,7.60
2018-04-01T21:56:21.252Z,7.70
2018-04-01T22:01:22.960Z,7.70
2018-04-01T22:06:24.540Z,7.70
2018-04-01T22:11:26.087Z,7.70
2018-04-01T22:16:27.644Z,7.70
2018-04-01T22:21:29.425Z,7.70
2018-04-01T22:26:31.007Z,7.60
2018-04-01T22:31:32.572Z,7.70
2018-04-01T22:36:34.241Z,7.60
2018-04-01T22:41:35.792Z,7.60
2018-04-01T22:46:37.349Z,7.60
2018-04-01T22:51:38.915Z,7.60
2018-04-01T22:56:40.612Z,7.60
2018-04-01T23:01:42.181Z,7.50
2018-04-01T23:06:43.766Z,7.50
2018-04-01T23:11:45.308Z,7.40
2018-04-01T23:16:46.856Z,7.50
2018-04-01T23:21:48.486Z,7.40
2018-04-01T23:26:50.069Z,7.30
2018-04-01T23:31:52.375Z,7.00
2018-04-01T23:36:54.071Z,6.90
2018-04-01T23:41:55.634Z,6.90
2018-04-01T23:46:57.184Z,6.80
2018-04-01T23:51:58.820Z,6.60
2018-04-01T23:57:00.384Z,6.60
